sensor_id;sensor_type;location;lat;lon;timestamp;pressure;altitude;pressure_sealevel;temperature;humidity
6938;BME280;40040;42.706;23.372;2023-04-07T00:01:28;144611.03;;;1.71;100.00
6938;BME280;40040;42.706;23.372;2023-04-07T00:03:57;144505.75;;;1.28;100.00
6938;BME280;40040;42.706;23.372;2023-04-07T00:06:23;144606.13;;;1.69;100.00
6938;BME280;40040;42.706;23.372;2023-04-07T00:08:51;144598.81;;;1.66;100.00
6938;BME280;40040;42.706;23.372;2023-04-07T00:11:18;144579.22;;;1.58;100.00
6938;BME280;40040;42.706;23.372;2023-04-07T00:13:45;144585.31;;;1.61;100.00
6938;BME280;40040;42.706;23.372;2023-04-07T00:16:12;144589.00;;;1.62;100.00
6938;BME280;40040;42.706;23.372;2023-04-07T00:18:39;144586.56;;;1.61;100.00
6938;BME280;40040;42.706;23.372;2023-04-07T00:21:07;144579.22;;;1.58;100.00
6938;BME280;40040;42.706;23.372;2023-04-07T00:23:34;144571.84;;;1.55;100.00
6938;BME280;40040;42.706;23.372;2023-04-07T00:26:01;144552.28;;;1.47;100.00
6938;BME280;40040;42.706;23.372;2023-04-07T00:28:27;144546.19;;;1.45;100.00
6938;BME280;40040;42.706;23.372;2023-04-07T00:30:54;144551.03;;;1.47;100.00
6938;BME280;40040;42.706;23.372;2023-04-07T00:33:21;144527.78;;;1.37;100.00
6938;BME280;40040;42.706;23.372;2023-04-07T00:35:48;144543.69;;;1.44;100.00
6938;BME280;40040;42.706;23.372;2023-04-07T00:38:16;144535.13;;;1.40;100.00
6938;BME280;40040;42.706;23.372;2023-04-07T00:40:43;144531.47;;;1.39;100.00
6938;BME280;40040;42.706;23.372;2023-04-07T00:43:09;144540.03;;;1.42;100.00
6938;BME280;40040;42.706;23.372;2023-04-07T00:45:36;144529.03;;;1.38;100.00
6938;BME280;40040;42.706;23.372;2023-04-07T00:48:03;144413.97;;;0.90;100.00
6938;BME280;40040;42.706;23.372;2023-04-07T00:50:30;144412.72;;;0.90;100.00
6938;BME280;40040;42.706;23.372;2023-04-07T00:52:57;144374.78;;;0.74;100.00
6938;BME280;40040;42.706;23.372;2023-04-07T00:55:26;144437.19;;;1.00;100.00
6938;BME280;40040;42.706;23.372;2023-04-07T00:57:53;144478.81;;;1.17;100.00
6938;BME280;40040;42.706;23.372;2023-04-07T01:00:21;144426.19;;;0.95;100.00
6938;BME280;40040;42.706;23.372;2023-04-07T01:02:55;144464.13;;;1.11;100.00
6938;BME280;40040;42.706;23.372;2023-04-07T01:05:29;144458.00;;;1.08;100.00
6938;BME280;40040;42.706;23.372;2023-04-07T01:08:08;144361.31;;;0.69;100.00
6938;BME280;40040;42.706;23.372;2023-04-07T01:10:42;144349.09;;;0.64;100.00
6938;BME280;40040;42.706;23.372;2023-04-07T01:13:21;144412.72;;;0.90;100.00
6938;BME280;40040;42.706;23.372;2023-04-07T01:15:51;144351.53;;;0.65;100.00
6938;BME280;40040;42.706;23.372;2023-04-07T01:18:23;144319.72;;;0.52;100.00
6938;BME280;40040;42.706;23.372;2023-04-07T01:20:51;144345.44;;;0.62;100.00
6938;BME280;40040;42.706;23.372;2023-04-07T01:23:29;144352.75;;;0.65;100.00
6938;BME280;40040;42.706;23.372;2023-04-07T01:26:17;144305.03;;;0.46;100.00
6938;BME280;40040;42.706;23.372;2023-04-07T01:29:18;144322.16;;;0.53;100.00
6938;BME280;40040;42.706;23.372;2023-04-07T01:31:47;144342.97;;;0.61;100.00
6938;BME280;40040;42.706;23.372;2023-04-07T01:34:16;144331.97;;;0.57;100.00
6938;BME280;40040;42.706;23.372;2023-04-07T01:36:44;144338.09;;;0.59;100.00
6938;BME280;40040;42.706;23.372;2023-04-07T01:39:12;144366.22;;;0.71;100.00
6938;BME280;40040;42.706;23.372;2023-04-07T01:41:40;144297.72;;;0.43;100.00
6938;BME280;40040;42.706;23.372;2023-04-07T01:44:08;144285.47;;;0.38;100.00
6938;BME280;40040;42.706;23.372;2023-04-07T01:46:37;144302.59;;;0.45;100.00
6938;BME280;40040;42.706;23.372;2023-04-07T01:49:04;144316.06;;;0.50;100.00
6938;BME280;40040;42.706;23.372;2023-04-07T01:51:32;144307.50;;;0.47;100.00
6938;BME280;40040;42.706;23.372;2023-04-07T01:54:00;144329.53;;;0.56;100.00
6938;BME280;40040;42.706;23.372;2023-04-07T01:56:28;144298.94;;;0.43;100.00
6938;BME280;40040;42.706;23.372;2023-04-07T01:58:54;144292.81;;;0.41;100.00
6938;BME280;40040;42.706;23.372;2023-04-07T02:01:21;144302.59;;;0.45;100.00
6938;BME280;40040;42.706;23.372;2023-04-07T02:03:53;144297.72;;;0.43;100.00
6938;BME280;40040;42.706;23.372;2023-04-07T02:06:28;144319.72;;;0.52;100.00
6938;BME280;40040;42.706;23.372;2023-04-07T02:09:02;144280.59;;;0.36;100.00
6938;BME280;40040;42.706;23.372;2023-04-07T02:11:30;144289.16;;;0.39;100.00
6938;BME280;40040;42.706;23.372;2023-04-07T02:13:59;144297.72;;;0.43;100.00
6938;BME280;40040;42.706;23.372;2023-04-07T02:16:27;144308.69;;;0.47;100.00
6938;BME280;40040;42.706;23.372;2023-04-07T02:18:57;144330.72;;;0.56;100.00
6938;BME280;40040;42.706;23.372;2023-04-07T02:21:27;144316.06;;;0.50;100.00
6938;BME280;40040;42.706;23.372;2023-04-07T02:23:54;144316.06;;;0.50;100.00
6938;BME280;40040;42.706;23.372;2023-04-07T02:26:21;144322.16;;;0.53;100.00
6938;BME280;40040;42.706;23.372;2023-04-07T02:28:48;144284.25;;;0.37;100.00
6938;BME280;40040;42.706;23.372;2023-04-07T02:31:15;144318.50;;;0.51;100.00
6938;BME280;40040;42.706;23.372;2023-04-07T02:33:41;144358.91;;;0.68;100.00
6938;BME280;40040;42.706;23.372;2023-04-07T02:36:09;144362.56;;;0.69;100.00
6938;BME280;40040;42.706;23.372;2023-04-07T02:38:36;144362.56;;;0.69;100.00
6938;BME280;40040;42.706;23.372;2023-04-07T02:41:03;144345.44;;;0.62;100.00
6938;BME280;40040;42.706;23.372;2023-04-07T02:43:30;144390.69;;;0.81;100.00
6938;BME280;40040;42.706;23.372;2023-04-07T02:45:57;144401.72;;;0.85;100.00
6938;BME280;40040;42.706;23.372;2023-04-07T02:48:24;144407.81;;;0.88;100.00
6938;BME280;40040;42.706;23.372;2023-04-07T02:50:51;144389.47;;;0.80;100.00
6938;BME280;40040;42.706;23.372;2023-04-07T02:53:19;144420.06;;;0.93;100.00
6938;BME280;40040;42.706;23.372;2023-04-07T02:55:46;144444.53;;;1.03;100.00
6938;BME280;40040;42.706;23.372;2023-04-07T02:58:13;144456.81;;;1.08;100.00
6938;BME280;40040;42.706;23.372;2023-04-07T03:00:40;144478.81;;;1.17;100.00
6938;BME280;40040;42.706;23.372;2023-04-07T03:03:06;144475.13;;;1.15;100.00
6938;BME280;40040;42.706;23.372;2023-04-07T03:05:33;144483.72;;;1.19;100.00
6938;BME280;40040;42.706;23.372;2023-04-07T03:08:00;144504.50;;;1.28;100.00
6938;BME280;40040;42.706;23.372;2023-04-07T03:10:28;144427.38;;;0.96;100.00
6938;BME280;40040;42.706;23.372;2023-04-07T03:12:56;144486.19;;;1.20;100.00
6938;BME280;40040;42.706;23.372;2023-04-07T03:15:23;144503.31;;;1.27;100.00
6938;BME280;40040;42.706;23.372;2023-04-07T03:17:49;144508.19;;;1.29;100.00
6938;BME280;40040;42.706;23.372;2023-04-07T03:20:16;144503.31;;;1.27;100.00
6938;BME280;40040;42.706;23.372;2023-04-07T03:22:43;144439.66;;;1.01;100.00
6938;BME280;40040;42.706;23.372;2023-04-07T03:25:11;144500.84;;;1.26;100.00
6938;BME280;40040;42.706;23.372;2023-04-07T03:27:40;144459.22;;;1.09;100.00
6938;BME280;40040;42.706;23.372;2023-04-07T03:30:07;144502.09;;;1.27;100.00
6938;BME280;40040;42.706;23.372;2023-04-07T03:32:34;144502.09;;;1.27;100.00
6938;BME280;40040;42.706;23.372;2023-04-07T03:35:01;144481.28;;;1.18;100.00
6938;BME280;40040;42.706;23.372;2023-04-07T03:37:28;144499.59;;;1.26;100.00
6938;BME280;40040;42.706;23.372;2023-04-07T03:39:55;144434.75;;;0.99;100.00
6938;BME280;40040;42.706;23.372;2023-04-07T03:42:21;144510.66;;;1.30;100.00
6938;BME280;40040;42.706;23.372;2023-04-07T03:44:50;144535.13;;;1.40;100.00
6938;BME280;40040;42.706;23.372;2023-04-07T03:47:16;144513.09;;;1.31;100.00
6938;BME280;40040;42.706;23.372;2023-04-07T03:49:43;144510.66;;;1.30;100.00
6938;BME280;40040;42.706;23.372;2023-04-07T03:52:10;144510.66;;;1.30;100.00
6938;BME280;40040;42.706;23.372;2023-04-07T03:54:37;144514.31;;;1.32;100.00
6938;BME280;40040;42.706;23.372;2023-04-07T03:57:04;144471.47;;;1.14;100.00
6938;BME280;40040;42.706;23.372;2023-04-07T03:59:30;144440.84;;;1.01;100.00
6938;BME280;40040;42.706;23.372;2023-04-07T04:01:59;144461.66;;;1.10;100.00
6938;BME280;40040;42.706;23.372;2023-04-07T04:04:26;144481.28;;;1.18;100.00
6938;BME280;40040;42.706;23.372;2023-04-07T04:06:53;144473.94;;;1.15;100.00
6938;BME280;40040;42.706;23.372;2023-04-07T04:09:20;144427.38;;;0.96;100.00
6938;BME280;40040;42.706;23.372;2023-04-07T04:11:47;144374.78;;;0.74;100.00
6938;BME280;40040;42.706;23.372;2023-04-07T04:14:13;144319.72;;;0.52;100.00
6938;BME280;40040;42.706;23.372;2023-04-07T04:16:40;144405.41;;;0.87;100.00
6938;BME280;40040;42.706;23.372;2023-04-07T04:19:08;144398.03;;;0.84;100.00
6938;BME280;40040;42.706;23.372;2023-04-07T04:21:35;144395.59;;;0.83;100.00
6938;BME280;40040;42.706;23.372;2023-04-07T04:24:02;144402.91;;;0.86;100.00
6938;BME280;40040;42.706;23.372;2023-04-07T04:26:29;144402.91;;;0.86;100.00
6938;BME280;40040;42.706;23.372;2023-04-07T04:28:56;144393.16;;;0.82;100.00
6938;BME280;40040;42.706;23.372;2023-04-07T04:31:23;144290.38;;;0.40;100.00
6938;BME280;40040;42.706;23.372;2023-04-07T04:33:49;144388.25;;;0.80;100.00
6938;BME280;40040;42.706;23.372;2023-04-07T04:36:18;144382.13;;;0.77;100.00
6938;BME280;40040;42.706;23.372;2023-04-07T04:38:45;144368.66;;;0.72;100.00
6938;BME280;40040;42.706;23.372;2023-04-07T04:41:11;144341.75;;;0.61;100.00
6938;BME280;40040;42.706;23.372;2023-04-07T04:43:38;144407.81;;;0.88;100.00
6938;BME280;40040;42.706;23.372;2023-04-07T04:46:05;144433.53;;;0.98;100.00
6938;BME280;40040;42.706;23.372;2023-04-07T04:48:32;144429.88;;;0.97;100.00
6938;BME280;40040;42.706;23.372;2023-04-07T04:50:59;144442.09;;;1.02;100.00
6938;BME280;40040;42.706;23.372;2023-04-07T04:53:27;144477.63;;;1.17;100.00
6938;BME280;40040;42.706;23.372;2023-04-07T04:55:54;144459.22;;;1.09;100.00
6938;BME280;40040;42.706;23.372;2023-04-07T04:58:20;144491.03;;;1.22;100.00
6938;BME280;40040;42.706;23.372;2023-04-07T05:00:47;144422.53;;;0.94;100.00
6938;BME280;40040;42.706;23.372;2023-04-07T05:03:14;144547.38;;;1.45;100.00
6938;BME280;40040;42.706;23.372;2023-04-07T05:05:41;144562.09;;;1.51;100.00
6938;BME280;40040;42.706;23.372;2023-04-07T05:08:09;144596.38;;;1.65;100.00
6938;BME280;40040;42.706;23.372;2023-04-07T05:10:38;144628.19;;;1.78;100.00
6938;BME280;40040;42.706;23.372;2023-04-07T05:13:05;144660.06;;;1.91;100.00
6938;BME280;40040;42.706;23.372;2023-04-07T05:15:32;144693.13;;;2.05;100.00
6938;BME280;40040;42.706;23.372;2023-04-07T05:17:59;144596.38;;;1.65;100.00
6938;BME280;40040;42.706;23.372;2023-04-07T05:20:27;144695.56;;;2.06;100.00
6938;BME280;40040;42.706;23.372;2023-04-07T05:22:54;144629.44;;;1.79;100.00
6938;BME280;40040;42.706;23.372;2023-04-07T05:25:21;144684.53;;;2.01;100.00
6938;BME280;40040;42.706;23.372;2023-04-07T05:27:49;144630.66;;;1.79;100.00
6938;BME280;40040;42.706;23.372;2023-04-07T05:30:16;144630.66;;;1.79;100.00
6938;BME280;40040;42.706;23.372;2023-04-07T05:32:43;144696.78;;;2.06;100.00
6938;BME280;40040;42.706;23.372;2023-04-07T05:35:10;144739.69;;;2.24;100.00
6938;BME280;40040;42.706;23.372;2023-04-07T05:37:37;144770.31;;;2.37;100.00
6938;BME280;40040;42.706;23.372;2023-04-07T05:40:04;144771.56;;;2.37;100.00
6938;BME280;40040;42.706;23.372;2023-04-07T05:42:31;144667.41;;;1.94;100.00
6938;BME280;40040;42.706;23.372;2023-04-07T05:45:00;144738.44;;;2.23;100.00
6938;BME280;40040;42.706;23.372;2023-04-07T05:47:26;144667.41;;;1.94;100.00
6938;BME280;40040;42.706;23.372;2023-04-07T05:49:53;144716.38;;;2.14;100.00
6938;BME280;40040;42.706;23.372;2023-04-07T05:52:20;144765.41;;;2.35;100.00
6938;BME280;40040;42.706;23.372;2023-04-07T05:54:47;144777.66;;;2.40;100.00
6938;BME280;40040;42.706;23.372;2023-04-07T05:57:14;144792.38;;;2.46;100.00
6938;BME280;40040;42.706;23.372;2023-04-07T05:59:41;144782.56;;;2.42;100.00
6938;BME280;40040;42.706;23.372;2023-04-07T06:02:09;144770.31;;;2.37;100.00
6938;BME280;40040;42.706;23.372;2023-04-07T06:04:36;144792.38;;;2.46;100.00
6938;BME280;40040;42.706;23.372;2023-04-07T06:07:04;144770.31;;;2.37;100.00
6938;BME280;40040;42.706;23.372;2023-04-07T06:09:31;144829.13;;;2.61;100.00
6938;BME280;40040;42.706;23.372;2023-04-07T06:11:57;144786.25;;;2.43;100.00
6938;BME280;40040;42.706;23.372;2023-04-07T06:14:26;144883.06;;;2.83;100.00
6938;BME280;40040;42.706;23.372;2023-04-07T06:16:52;144910.03;;;2.94;100.00
6938;BME280;40040;42.706;23.372;2023-04-07T06:19:21;144927.22;;;3.01;100.00
6938;BME280;40040;42.706;23.372;2023-04-07T06:21:47;144956.63;;;3.13;100.00
6938;BME280;40040;42.706;23.372;2023-04-07T06:24:14;144977.47;;;3.21;100.00
6938;BME280;40040;42.706;23.372;2023-04-07T06:26:41;145037.56;;;3.46;100.00
6938;BME280;40040;42.706;23.372;2023-04-07T06:29:08;145079.28;;;3.63;100.00
6938;BME280;40040;42.706;23.372;2023-04-07T06:31:35;145113.63;;;3.77;97.47
6938;BME280;40040;42.706;23.372;2023-04-07T06:34:02;145147.97;;;3.91;94.12
6938;BME280;40040;42.706;23.372;2023-04-07T06:36:30;145184.78;;;4.06;88.51
6938;BME280;40040;42.706;23.372;2023-04-07T06:38:57;145214.28;;;4.18;89.33
6938;BME280;40040;42.706;23.372;2023-04-07T06:41:24;145243.72;;;4.30;88.97
6938;BME280;40040;42.706;23.372;2023-04-07T06:43:51;145337.03;;;4.69;89.99
6938;BME280;40040;42.706;23.372;2023-04-07T06:46:18;145402.06;;;4.95;87.39
6938;BME280;40040;42.706;23.372;2023-04-07T06:48:45;145461.06;;;5.19;85.15
6938;BME280;40040;42.706;23.372;2023-04-07T06:51:12;145531.06;;;5.48;84.90
6938;BME280;40040;42.706;23.372;2023-04-07T06:53:40;145599.88;;;5.76;81.62
6938;BME280;40040;42.706;23.372;2023-04-07T06:56:09;145624.50;;;5.86;79.27
6938;BME280;40040;42.706;23.372;2023-04-07T06:58:37;145733.94;;;6.31;77.45
6938;BME280;40040;42.706;23.372;2023-04-07T07:01:04;145812.59;;;6.63;78.48
6938;BME280;40040;42.706;23.372;2023-04-07T07:03:31;145880.25;;;6.91;76.69
6938;BME280;40040;42.706;23.372;2023-04-07T07:05:59;145939.34;;;7.15;77.28
6938;BME280;40040;42.706;23.372;2023-04-07T07:08:26;145970.06;;;7.27;75.77
6938;BME280;40040;42.706;23.372;2023-04-07T07:10:55;146069.75;;;7.68;73.07
6938;BME280;40040;42.706;23.372;2023-04-07T07:13:24;146093.16;;;7.77;72.26
6938;BME280;40040;42.706;23.372;2023-04-07T07:15:52;146138.69;;;7.96;73.33
6938;BME280;40040;42.706;23.372;2023-04-07T07:18:19;146153.44;;;8.02;72.47
6938;BME280;40040;42.706;23.372;2023-04-07T07:20:45;146109.16;;;7.84;71.52
6938;BME280;40040;42.706;23.372;2023-04-07T07:23:12;146099.31;;;7.80;72.59
6938;BME280;40040;42.706;23.372;2023-04-07T07:25:39;146122.72;;;7.89;72.60
6938;BME280;40040;42.706;23.372;2023-04-07T07:28:07;146130.09;;;7.92;71.85
6938;BME280;40040;42.706;23.372;2023-04-07T07:30:34;146138.69;;;7.96;71.98
6938;BME280;40040;42.706;23.372;2023-04-07T07:33:01;146215.09;;;8.27;71.22
6938;BME280;40040;42.706;23.372;2023-04-07T07:35:28;146215.09;;;8.27;72.11
6938;BME280;40040;42.706;23.372;2023-04-07T07:37:57;146228.66;;;8.33;71.94
6938;BME280;40040;42.706;23.372;2023-04-07T07:40:23;146229.88;;;8.33;71.28
6938;BME280;40040;42.706;23.372;2023-04-07T07:42:50;146138.69;;;7.96;72.31
6938;BME280;40040;42.706;23.372;2023-04-07T07:45:18;146118.97;;;7.88;72.90
6938;BME280;40040;42.706;23.372;2023-04-07T07:47:45;146101.78;;;7.81;72.39
6938;BME280;40040;42.706;23.372;2023-04-07T07:50:12;146118.97;;;7.88;73.40
6938;BME280;40040;42.706;23.372;2023-04-07T07:52:39;146116.53;;;7.87;72.50
6938;BME280;40040;42.706;23.372;2023-04-07T07:55:06;146200.25;;;8.21;71.71
6938;BME280;40040;42.706;23.372;2023-04-07T07:57:33;146223.72;;;8.31;72.10
6938;BME280;40040;42.706;23.372;2023-04-07T08:00:00;146237.25;;;8.36;71.13
6938;BME280;40040;42.706;23.372;2023-04-07T08:02:29;146217.53;;;8.28;70.54
6938;BME280;40040;42.706;23.372;2023-04-07T08:04:58;146238.50;;;8.37;70.54
6938;BME280;40040;42.706;23.372;2023-04-07T08:07:25;146242.19;;;8.38;65.35
6938;BME280;40040;42.706;23.372;2023-04-07T08:09:52;146303.75;;;8.63;63.83
6938;BME280;40040;42.706;23.372;2023-04-07T08:12:20;146333.31;;;8.75;62.36
6938;BME280;40040;42.706;23.372;2023-04-07T08:14:47;146293.94;;;8.59;60.58
6938;BME280;40040;42.706;23.372;2023-04-07T08:17:14;146382.63;;;8.95;61.51
6938;BME280;40040;42.706;23.372;2023-04-07T08:19:42;146444.22;;;9.21;59.50
6938;BME280;40040;42.706;23.372;2023-04-07T08:22:09;146434.38;;;9.17;58.21
6938;BME280;40040;42.706;23.372;2023-04-07T08:24:36;146412.19;;;9.07;58.33
6938;BME280;40040;42.706;23.372;2023-04-07T08:27:03;146394.94;;;9.00;60.54
6938;BME280;40040;42.706;23.372;2023-04-07T08:29:30;146312.38;;;8.67;58.74
6938;BME280;40040;42.706;23.372;2023-04-07T08:31:57;146264.31;;;8.47;61.16
6938;BME280;40040;42.706;23.372;2023-04-07T08:34:24;146397.38;;;9.01;58.90
6938;BME280;40040;42.706;23.372;2023-04-07T08:36:52;146424.50;;;9.13;59.22
6938;BME280;40040;42.706;23.372;2023-04-07T08:39:19;146451.63;;;9.24;57.77
6938;BME280;40040;42.706;23.372;2023-04-07T08:41:47;146431.91;;;9.16;57.24
6938;BME280;40040;42.706;23.372;2023-04-07T08:44:16;146419.56;;;9.10;57.27
6938;BME280;40040;42.706;23.372;2023-04-07T08:46:43;146419.56;;;9.10;58.21
6938;BME280;40040;42.706;23.372;2023-04-07T08:49:12;146461.47;;;9.28;58.07
6938;BME280;40040;42.706;23.372;2023-04-07T08:51:44;146467.66;;;9.30;57.17
6938;BME280;40040;42.706;23.372;2023-04-07T08:54:14;146537.94;;;9.59;56.80
6938;BME280;40040;42.706;23.372;2023-04-07T08:56:43;146569.97;;;9.72;56.71
6938;BME280;40040;42.706;23.372;2023-04-07T08:59:12;146653.78;;;10.06;55.59
6938;BME280;40040;42.706;23.372;2023-04-07T09:01:40;146684.69;;;10.18;54.18
6938;BME280;40040;42.706;23.372;2023-04-07T09:04:08;146734.03;;;10.39;54.59
6938;BME280;40040;42.706;23.372;2023-04-07T09:06:35;146666.22;;;10.11;52.93
6938;BME280;40040;42.706;23.372;2023-04-07T09:09:02;146663.72;;;10.10;54.14
6938;BME280;40040;42.706;23.372;2023-04-07T09:11:34;146630.38;;;9.96;54.08
6938;BME280;40040;42.706;23.372;2023-04-07T09:14:03;146631.63;;;9.97;54.81
6938;BME280;40040;42.706;23.372;2023-04-07T09:16:30;146599.53;;;9.84;54.63
6938;BME280;40040;42.706;23.372;2023-04-07T09:18:57;146618.06;;;9.91;54.96
6938;BME280;40040;42.706;23.372;2023-04-07T09:21:24;146643.97;;;10.02;56.99
6938;BME280;40040;42.706;23.372;2023-04-07T09:23:52;146673.59;;;10.14;55.36
6938;BME280;40040;42.706;23.372;2023-04-07T09:26:21;146753.75;;;10.47;54.00
6938;BME280;40040;42.706;23.372;2023-04-07T09:28:52;146837.69;;;10.81;55.55
6938;BME280;40040;42.706;23.372;2023-04-07T09:31:20;146877.13;;;10.97;51.68
6938;BME280;40040;42.706;23.372;2023-04-07T09:33:48;146949.97;;;11.26;50.93
6938;BME280;40040;42.706;23.372;2023-04-07T09:36:15;146964.78;;;11.32;51.07
6938;BME280;40040;42.706;23.372;2023-04-07T09:38:43;146957.41;;;11.29;50.72
6938;BME280;40040;42.706;23.372;2023-04-07T09:41:11;146991.97;;;11.44;50.54
6938;BME280;40040;42.706;23.372;2023-04-07T09:43:41;146856.16;;;10.88;51.63
6938;BME280;40040;42.706;23.372;2023-04-07T09:46:12;146750.06;;;10.45;52.60
6938;BME280;40040;42.706;23.372;2023-04-07T09:48:40;146852.47;;;10.87;51.21
6938;BME280;40040;42.706;23.372;2023-04-07T09:51:09;146682.22;;;10.17;52.31
6938;BME280;40040;42.706;23.372;2023-04-07T09:53:46;146727.84;;;10.36;52.68
6938;BME280;40040;42.706;23.372;2023-04-07T09:56:14;146714.28;;;10.31;53.87
6938;BME280;40040;42.706;23.372;2023-04-07T09:58:43;146672.34;;;10.13;53.51
6938;BME280;40040;42.706;23.372;2023-04-07T10:01:12;146585.97;;;9.78;55.28
6938;BME280;40040;42.706;23.372;2023-04-07T10:03:41;146656.28;;;10.07;53.08
6938;BME280;40040;42.706;23.372;2023-04-07T10:06:08;146758.69;;;10.49;54.23
6938;BME280;40040;42.706;23.372;2023-04-07T10:08:37;146868.50;;;10.93;52.07
6938;BME280;40040;42.706;23.372;2023-04-07T10:11:05;146908.00;;;11.09;51.09
6938;BME280;40040;42.706;23.372;2023-04-07T10:13:33;146893.22;;;11.03;51.76
6938;BME280;40040;42.706;23.372;2023-04-07T10:16:03;146883.34;;;10.99;52.27
6938;BME280;40040;42.706;23.372;2023-04-07T10:18:33;146848.78;;;10.85;53.91
6938;BME280;40040;42.706;23.372;2023-04-07T10:21:01;146758.69;;;10.49;56.00
6938;BME280;40040;42.706;23.372;2023-04-07T10:23:36;146695.81;;;10.23;55.08
6938;BME280;40040;42.706;23.372;2023-04-07T10:26:07;146603.25;;;9.85;56.86
6938;BME280;40040;42.706;23.372;2023-04-07T10:28:37;146495.97;;;9.42;58.08
6938;BME280;40040;42.706;23.372;2023-04-07T10:31:06;146372.75;;;8.91;60.09
6938;BME280;40040;42.706;23.372;2023-04-07T10:33:46;146441.75;;;9.20;59.79
6938;BME280;40040;42.706;23.372;2023-04-07T10:36:15;146495.97;;;9.42;60.19
6938;BME280;40040;42.706;23.372;2023-04-07T10:39:18;146553.94;;;9.65;57.96
6938;BME280;40040;42.706;23.372;2023-04-07T10:41:46;146545.31;;;9.62;55.97
6938;BME280;40040;42.706;23.372;2023-04-07T10:47:09;146610.69;;;9.88;56.00
6938;BME280;40040;42.706;23.372;2023-04-07T10:49:37;146537.94;;;9.59;58.46
6938;BME280;40040;42.706;23.372;2023-04-07T10:52:21;146592.16;;;9.81;57.32
6938;BME280;40040;42.706;23.372;2023-04-07T10:55:28;146606.94;;;9.87;59.07
6938;BME280;40040;42.706;23.372;2023-04-07T10:58:17;146619.31;;;9.92;57.53
6938;BME280;40040;42.706;23.372;2023-04-07T11:01:18;146645.16;;;10.02;57.85
6938;BME280;40040;42.706;23.372;2023-04-07T11:03:59;146636.53;;;9.99;57.17
6938;BME280;40040;42.706;23.372;2023-04-07T11:06:27;146609.44;;;9.88;56.60
6938;BME280;40040;42.706;23.372;2023-04-07T11:08:54;146583.53;;;9.77;57.50
6938;BME280;40040;42.706;23.372;2023-04-07T11:11:37;146621.75;;;9.93;56.37
6938;BME280;40040;42.706;23.372;2023-04-07T11:14:04;146610.69;;;9.88;57.08
6938;BME280;40040;42.706;23.372;2023-04-07T11:16:39;146636.53;;;9.99;57.99
6938;BME280;40040;42.706;23.372;2023-04-07T11:19:06;146727.84;;;10.36;56.46
6938;BME280;40040;42.706;23.372;2023-04-07T11:21:34;146729.09;;;10.37;55.27
6938;BME280;40040;42.706;23.372;2023-04-07T11:24:02;146705.66;;;10.27;56.24
6938;BME280;40040;42.706;23.372;2023-04-07T11:26:36;146656.28;;;10.07;55.93
6938;BME280;40040;42.706;23.372;2023-04-07T11:29:03;146595.84;;;9.82;57.40
6938;BME280;40040;42.706;23.372;2023-04-07T11:31:30;146693.31;;;10.22;56.41
6938;BME280;40040;42.706;23.372;2023-04-07T11:33:59;146767.34;;;10.52;55.84
6938;BME280;40040;42.706;23.372;2023-04-07T11:36:27;146705.66;;;10.27;55.62
6938;BME280;40040;42.706;23.372;2023-04-07T11:38:56;146660.03;;;10.08;56.66
6938;BME280;40040;42.706;23.372;2023-04-07T11:41:24;146631.63;;;9.97;56.68
6938;BME280;40040;42.706;23.372;2023-04-07T11:44:08;146530.50;;;9.56;57.28
6938;BME280;40040;42.706;23.372;2023-04-07T11:46:36;146579.84;;;9.76;58.11
6938;BME280;40040;42.706;23.372;2023-04-07T11:49:11;146545.31;;;9.62;58.13
6938;BME280;40040;42.706;23.372;2023-04-07T11:51:38;146497.22;;;9.42;58.20
6938;BME280;40040;42.706;23.372;2023-04-07T11:54:07;146556.38;;;9.66;58.18
6938;BME280;40040;42.706;23.372;2023-04-07T11:56:42;146535.44;;;9.58;58.79
6938;BME280;40040;42.706;23.372;2023-04-07T11:59:18;146555.19;;;9.66;58.53
6938;BME280;40040;42.706;23.372;2023-04-07T12:01:47;146616.81;;;9.91;57.67
6938;BME280;40040;42.706;23.372;2023-04-07T12:04:15;146643.97;;;10.02;56.79
6938;BME280;40040;42.706;23.372;2023-04-07T12:06:43;146734.03;;;10.39;57.90
6938;BME280;40040;42.706;23.372;2023-04-07T12:09:27;146801.88;;;10.66;56.23
6938;BME280;40040;42.706;23.372;2023-04-07T12:11:55;146848.78;;;10.85;55.06
6938;BME280;40040;42.706;23.372;2023-04-07T12:14:23;146763.66;;;10.51;55.96
6938;BME280;40040;42.706;23.372;2023-04-07T12:16:50;146809.28;;;10.69;56.30
6938;BME280;40040;42.706;23.372;2023-04-07T12:19:20;146826.56;;;10.76;56.75
6938;BME280;40040;42.706;23.372;2023-04-07T12:21:47;146932.69;;;11.19;56.14
6938;BME280;40040;42.706;23.372;2023-04-07T12:24:14;147036.38;;;11.62;54.94
6938;BME280;40040;42.706;23.372;2023-04-07T12:26:43;147090.75;;;11.84;53.43
6938;BME280;40040;42.706;23.372;2023-04-07T12:29:10;147043.84;;;11.65;54.17
6938;BME280;40040;42.706;23.372;2023-04-07T12:31:37;147006.75;;;11.50;53.83
6938;BME280;40040;42.706;23.372;2023-04-07T12:34:04;146921.59;;;11.15;54.27
6938;BME280;40040;42.706;23.372;2023-04-07T12:36:31;146751.31;;;10.46;56.71
6938;BME280;40040;42.706;23.372;2023-04-07T12:38:58;146880.84;;;10.98;55.06
6938;BME280;40040;42.706;23.372;2023-04-07T12:41:25;146811.78;;;10.70;55.21
6938;BME280;40040;42.706;23.372;2023-04-07T12:43:53;146910.50;;;11.10;55.20
6938;BME280;40040;42.706;23.372;2023-04-07T12:46:20;146927.78;;;11.17;54.59
6938;BME280;40040;42.706;23.372;2023-04-07T12:48:47;146912.94;;;11.11;54.91
6938;BME280;40040;42.706;23.372;2023-04-07T12:51:14;146969.75;;;11.34;53.97
6938;BME280;40040;42.706;23.372;2023-04-07T12:53:41;146968.50;;;11.34;55.14
6938;BME280;40040;42.706;23.372;2023-04-07T12:56:08;146972.19;;;11.35;54.53
6938;BME280;40040;42.706;23.372;2023-04-07T12:58:35;146963.53;;;11.32;54.22
6938;BME280;40040;42.706;23.372;2023-04-07T13:01:03;146925.28;;;11.16;55.89
6938;BME280;40040;42.706;23.372;2023-04-07T13:03:31;146837.69;;;10.81;55.54